Time;durP1;ratioP1;P1;durP2;ratioP2;P2;SDS_P1;SDS_P2;PMS_P1;PMS_P2;Temp;Humidity;BMP_temperature;BMP_pressure;BME280_temperature;BME280_humidity;BME280_pressure;Samples;Min_cycle;Max_cycle;Signal;HPM_P1;HPM_P2
2021/10/16 00:01:56;;;;;;;7.20;1.40;;;7.60;99.90;;;;;;5077013;27;20040;-75
2021/10/16 00:04:23;;;;;;;5.15;0.90;;;7.60;99.90;;;;;;5060180;28;20044;-75
2021/10/16 00:06:49;;;;;;;6.95;0.80;;;7.50;99.90;;;;;;5067650;28;20051;-75
2021/10/16 00:09:16;;;;;;;3.53;0.70;;;7.50;99.90;;;;;;5049674;28;20040;-75
2021/10/16 00:11:42;;;;;;;4.13;0.90;;;7.50;99.90;;;;;;5051418;28;20028;-75
2021/10/16 00:14:09;;;;;;;4.88;1.30;;;7.50;99.90;;;;;;5085775;28;20044;-75
2021/10/16 00:16:35;;;;;;;6.70;1.02;;;7.50;99.90;;;;;;5068124;28;20396;-75
2021/10/16 00:19:02;;;;;;;7.00;0.90;;;7.40;99.90;;;;;;5032816;28;20032;-75
2021/10/16 00:21:28;;;;;;;7.80;0.90;;;7.40;99.90;;;;;;5049731;28;20118;-75
2021/10/16 00:23:55;;;;;;;8.50;1.33;;;7.40;99.90;;;;;;5067239;28;20388;-75
2021/10/16 00:26:21;;;;;;;5.97;1.13;;;7.40;99.90;;;;;;5084867;28;20067;-74
2021/10/16 00:28:48;;;;;;;10.05;1.00;;;7.40;99.90;;;;;;5036019;28;20048;-75
2021/10/16 00:31:14;;;;;;;5.43;0.73;;;7.40;99.90;;;;;;5067204;28;20417;-75
2021/10/16 00:33:41;;;;;;;7.90;1.25;;;7.40;99.90;;;;;;5066734;28;20139;-75
2021/10/16 00:36:08;;;;;;;10.35;2.13;;;7.30;99.90;;;;;;5067541;28;20032;-75
2021/10/16 00:38:34;;;;;;;8.02;1.23;;;7.30;99.90;;;;;;5062671;28;20036;-75
2021/10/16 00:41:00;;;;;;;5.97;1.15;;;7.30;99.90;;;;;;5067533;28;20032;-75
2021/10/16 00:43:27;;;;;;;5.03;1.10;;;7.20;99.90;;;;;;5066390;28;20032;-75
2021/10/16 00:45:53;;;;;;;4.35;1.10;;;7.20;99.90;;;;;;5063693;28;20043;-75
2021/10/16 00:48:20;;;;;;;5.72;1.10;;;7.10;99.90;;;;;;5083746;28;20452;-75
2021/10/16 00:50:46;;;;;;;4.50;1.45;;;7.10;99.90;;;;;;5048750;28;20036;-75
2021/10/16 00:53:14;;;;;;;5.30;1.42;;;7.00;99.90;;;;;;5047430;28;20051;-75
2021/10/16 00:55:40;;;;;;;8.10;2.03;;;7.00;99.90;;;;;;5067876;28;20040;-75
2021/10/16 00:58:08;;;;;;;6.60;1.52;;;6.90;99.90;;;;;;5049441;28;20035;-75
2021/10/16 01:00:34;;;;;;;9.75;1.58;;;6.90;99.90;;;;;;5064143;28;20040;-75
2021/10/16 01:03:02;;;;;;;4.07;1.00;;;6.80;99.90;;;;;;5066219;28;20032;-75
2021/10/16 01:05:30;;;;;;;6.32;1.10;;;6.80;99.90;;;;;;5067115;28;20048;-74
2021/10/16 01:07:57;;;;;;;6.68;1.00;;;6.80;99.90;;;;;;5085049;28;20036;-75
2021/10/16 01:10:23;;;;;;;6.22;1.33;;;6.80;99.90;;;;;;5064333;28;20404;-75
2021/10/16 01:12:50;;;;;;;6.32;1.92;;;6.80;99.90;;;;;;5043982;28;20040;-75
2021/10/16 01:15:18;;;;;;;6.15;0.82;;;6.70;99.90;;;;;;5081038;28;20031;-75
2021/10/16 01:17:48;;;;;;;7.55;0.85;;;6.70;99.90;;;;;;5074776;28;20423;-75
2021/10/16 01:20:20;;;;;;;7.85;1.50;;;6.60;99.90;;;;;;5064795;28;20494;-74
2021/10/16 01:22:50;;;;;;;7.20;1.00;;;6.60;99.90;;;;;;5072421;28;20427;-75
2021/10/16 01:25:22;;;;;;;7.82;1.00;;;6.50;99.90;;;;;;5049984;28;20055;-75
2021/10/16 01:27:50;;;;;;;5.95;0.95;;;6.50;99.90;;;;;;5027778;28;20036;-74
2021/10/16 01:30:22;;;;;;;6.85;0.85;;;6.40;99.90;;;;;;5054518;28;20055;-75
2021/10/16 01:32:49;;;;;;;3.20;0.80;;;6.40;99.90;;;;;;5070114;28;20036;-75
2021/10/16 01:35:16;;;;;;;5.40;1.10;;;6.40;99.90;;;;;;5044728;28;20055;-75
2021/10/16 01:37:45;;;;;;;6.68;0.93;;;6.40;99.90;;;;;;5069884;28;20044;-75
2021/10/16 01:40:14;;;;;;;9.68;0.95;;;6.40;99.90;;;;;;5050079;28;20031;-79
2021/10/16 01:42:43;;;;;;;4.82;1.00;;;6.40;99.90;;;;;;5052019;28;20517;-80
2021/10/16 01:45:12;;;;;;;7.60;1.50;;;6.30;99.90;;;;;;5053578;28;20040;-80
2021/10/16 01:47:51;;;;;;;5.97;0.93;;;6.30;99.90;;;;;;5068228;28;20039;-79
2021/10/16 01:50:23;;;;;;;5.85;1.38;;;6.30;99.90;;;;;;5068189;28;20036;-80
2021/10/16 01:52:50;;;;;;;6.75;1.15;;;6.30;99.90;;;;;;5048443;28;20036;-79
2021/10/16 01:55:17;;;;;;;5.22;1.70;;;6.20;99.90;;;;;;5035852;28;20066;-79
2021/10/16 01:57:51;;;;;;;5.68;0.85;;;6.20;99.90;;;;;;5037288;28;20047;-79
2021/10/16 02:00:19;;;;;;;7.35;1.00;;;6.20;99.90;;;;;;5050656;28;20044;-78
2021/10/16 02:02:50;;;;;;;5.80;1.00;;;6.20;99.90;;;;;;5068480;28;20035;-80
2021/10/16 02:05:45;;;;;;;7.75;2.05;;;6.20;99.90;;;;;;5071167;28;20078;-78
2021/10/16 02:08:34;;;;;;;7.40;1.02;;;6.10;99.90;;;;;;5036426;28;20044;-77
2021/10/16 02:11:01;;;;;;;7.25;1.23;;;6.10;99.90;;;;;;5064753;28;20047;-78
2021/10/16 02:13:36;;;;;;;8.27;2.47;;;6.10;99.90;;;;;;5066520;28;20063;-78
2021/10/16 02:16:05;;;;;;;8.82;2.28;;;6.10;99.90;;;;;;5034776;28;20055;-77
2021/10/16 02:18:40;;;;;;;8.65;2.08;;;6.10;99.90;;;;;;5049287;28;20031;-78
2021/10/16 02:21:06;;;;;;;8.95;2.33;;;6.10;99.90;;;;;;5065959;28;20103;-79
2021/10/16 02:23:34;;;;;;;6.50;2.25;;;6.00;99.90;;;;;;5037405;28;20032;-79
2021/10/16 02:26:01;;;;;;;7.55;1.63;;;6.00;99.90;;;;;;5050897;28;20040;-79
2021/10/16 02:28:30;;;;;;;6.13;1.40;;;6.00;99.90;;;;;;5022846;28;20046;-79
2021/10/16 02:31:14;;;;;;;4.68;1.15;;;5.90;99.90;;;;;;5068599;28;20044;-79
2021/10/16 02:33:42;;;;;;;5.55;0.90;;;5.90;99.90;;;;;;5055555;28;20040;-79
2021/10/16 02:36:09;;;;;;;5.00;0.90;;;5.90;99.90;;;;;;5072038;28;20524;-79
2021/10/16 02:38:35;;;;;;;4.43;0.68;;;5.90;99.90;;;;;;5072540;28;20028;-79
2021/10/16 02:41:03;;;;;;;4.57;0.90;;;5.90;99.90;;;;;;5064135;28;20039;-79
2021/10/16 02:43:29;;;;;;;3.63;0.70;;;5.90;99.90;;;;;;5078465;28;20032;-80
2021/10/16 02:45:56;;;;;;;6.05;0.70;;;5.90;99.90;;;;;;5081798;28;20388;-79
2021/10/16 02:48:23;;;;;;;3.38;0.70;;;5.90;99.90;;;;;;5063322;28;20396;-79
2021/10/16 02:50:49;;;;;;;4.72;0.90;;;5.90;99.90;;;;;;5093123;28;20040;-79
2021/10/16 02:53:19;;;;;;;6.53;1.20;;;6.00;99.90;;;;;;5053192;28;20043;-79
2021/10/16 02:55:45;;;;;;;5.93;0.80;;;6.00;99.90;;;;;;5070616;28;20492;-79
2021/10/16 02:58:12;;;;;;;9.07;1.10;;;6.00;99.90;;;;;;5072042;28;20770;-79
2021/10/16 03:00:38;;;;;;;8.77;0.80;;;6.10;99.90;;;;;;5067886;28;20036;-79
2021/10/16 03:03:06;;;;;;;6.80;0.88;;;6.10;99.90;;;;;;5095498;28;20036;-80
2021/10/16 03:05:32;;;;;;;6.22;0.95;;;6.20;99.90;;;;;;5095921;28;20055;-79
2021/10/16 03:08:05;;;;;;;6.78;0.98;;;6.20;99.90;;;;;;5094405;28;20040;-79
2021/10/16 03:10:31;;;;;;;5.82;1.10;;;6.30;99.90;;;;;;5099755;28;20047;-79
2021/10/16 03:12:58;;;;;;;4.28;0.90;;;6.30;99.90;;;;;;5095083;28;20035;-80
2021/10/16 03:15:24;;;;;;;4.70;1.15;;;6.30;99.90;;;;;;5090761;28;20035;-80
2021/10/16 03:17:51;;;;;;;6.57;1.48;;;6.30;99.90;;;;;;5077273;28;20028;-79
2021/10/16 03:20:19;;;;;;;6.00;1.10;;;6.40;99.90;;;;;;5100067;28;20147;-80
2021/10/16 03:22:46;;;;;;;5.97;1.33;;;6.40;99.90;;;;;;5073908;28;20035;-79
2021/10/16 03:25:12;;;;;;;5.78;1.10;;;6.40;99.90;;;;;;5077389;28;20037;-79
2021/10/16 03:27:39;;;;;;;4.72;0.88;;;6.50;99.90;;;;;;5078681;28;20052;-79
2021/10/16 03:30:06;;;;;;;6.18;0.85;;;6.60;99.90;;;;;;5052669;28;20047;-79
2021/10/16 03:32:33;;;;;;;4.05;0.70;;;6.60;99.90;;;;;;5052762;28;20052;-79
2021/10/16 03:34:59;;;;;;;7.10;1.30;;;6.60;99.90;;;;;;5053989;28;20036;-79
2021/10/16 03:37:26;;;;;;;4.65;1.20;;;6.70;99.90;;;;;;5053052;28;20037;-80
2021/10/16 03:39:52;;;;;;;6.20;1.27;;;6.70;99.90;;;;;;5038238;28;20044;-80
2021/10/16 03:42:19;;;;;;;9.07;1.13;;;6.80;99.90;;;;;;5072419;28;20033;-80
2021/10/16 03:44:56;;;;;;;7.97;1.20;;;6.80;99.90;;;;;;5046175;28;20036;-79
2021/10/16 03:47:22;;;;;;;5.30;0.70;;;6.90;99.90;;;;;;5056265;28;20032;-80
2021/10/16 03:49:50;;;;;;;7.25;0.70;;;6.90;99.90;;;;;;5072072;28;20040;-79
2021/10/16 03:52:16;;;;;;;7.00;1.00;;;7.00;99.90;;;;;;5069907;28;20032;-79
2021/10/16 03:54:46;;;;;;;7.88;0.73;;;7.10;99.90;;;;;;5069126;28;20405;-80
2021/10/16 03:57:12;;;;;;;4.20;0.73;;;7.10;99.90;;;;;;5055739;28;20040;-80
2021/10/16 03:59:42;;;;;;;6.60;1.10;;;7.10;99.90;;;;;;5054348;28;20052;-80
2021/10/16 04:02:09;;;;;;;4.57;0.60;;;7.20;99.90;;;;;;5054139;28;20485;-79
2021/10/16 04:04:36;;;;;;;3.58;0.63;;;7.20;99.90;;;;;;5082317;28;20043;-80
2021/10/16 04:07:03;;;;;;;6.20;1.10;;;7.20;99.90;;;;;;5092909;28;20043;-80
2021/10/16 04:09:29;;;;;;;5.03;0.90;;;7.30;99.90;;;;;;5090977;28;20795;-80
2021/10/16 04:11:56;;;;;;;4.65;0.80;;;7.30;99.90;;;;;;5090891;28;20054;-80
2021/10/16 04:14:23;;;;;;;3.88;0.90;;;7.40;99.90;;;;;;5068287;27;20027;-79
2021/10/16 04:16:50;;;;;;;6.38;0.95;;;7.40;99.90;;;;;;5106502;27;20047;-80
2021/10/16 04:19:16;;;;;;;7.18;0.70;;;7.50;99.90;;;;;;5077060;27;20035;-79
2021/10/16 04:21:44;;;;;;;4.65;1.13;;;7.50;99.90;;;;;;5097352;27;20804;-80
2021/10/16 04:24:11;;;;;;;5.88;0.75;;;7.60;99.90;;;;;;5116210;27;20031;-80
2021/10/16 04:26:37;;;;;;;5.43;0.80;;;7.60;99.90;;;;;;5115018;27;20035;-80
2021/10/16 04:29:05;;;;;;;6.57;0.70;;;7.60;99.90;;;;;;5096893;27;20027;-80
2021/10/16 04:31:50;;;;;;;4.95;1.08;;;7.60;99.90;;;;;;5098116;27;20798;-80
2021/10/16 04:34:17;;;;;;;7.97;0.90;;;7.60;99.90;;;;;;5094574;27;20031;-80
2021/10/16 04:36:43;;;;;;;4.78;0.75;;;7.70;99.90;;;;;;5111116;27;20035;-80
2021/10/16 04:39:09;;;;;;;7.18;1.25;;;7.70;99.90;;;;;;5122672;27;20031;-80
2021/10/16 04:41:36;;;;;;;6.68;0.90;;;7.70;99.90;;;;;;5111256;27;19969;-80
2021/10/16 04:44:05;;;;;;;6.55;1.00;;;7.70;99.90;;;;;;5094976;27;20032;-80
2021/10/16 04:46:32;;;;;;;5.40;0.75;;;7.70;99.90;;;;;;5112219;27;20035;-80
2021/10/16 04:49:04;;;;;;;4.50;0.88;;;7.80;99.90;;;;;;5111764;27;20046;-79
2021/10/16 04:51:35;;;;;;;7.68;0.95;;;7.80;99.90;;;;;;5095211;28;20066;-78
2021/10/16 04:54:01;;;;;;;7.55;0.90;;;7.90;99.90;;;;;;5078583;27;20040;-79
2021/10/16 04:56:28;;;;;;;6.18;0.98;;;7.90;99.90;;;;;;5096265;27;20368;-79
2021/10/16 04:58:57;;;;;;;5.13;1.20;;;7.90;99.90;;;;;;5116322;27;20035;-79
2021/10/16 05:01:23;;;;;;;6.82;0.80;;;7.90;99.90;;;;;;5098243;27;20038;-79
2021/10/16 05:03:50;;;;;;;4.10;0.60;;;7.90;99.90;;;;;;5098273;27;20039;-79
2021/10/16 05:06:20;;;;;;;4.32;0.60;;;8.00;99.90;;;;;;5116081;27;20044;-79
2021/10/16 05:08:47;;;;;;;5.90;0.80;;;8.00;99.90;;;;;;5095596;27;20031;-80
2021/10/16 05:11:14;;;;;;;5.38;1.00;;;8.00;99.90;;;;;;5114059;27;20039;-78
2021/10/16 05:13:40;;;;;;;4.25;0.60;;;8.00;99.90;;;;;;5108981;27;20035;-79
2021/10/16 05:16:07;;;;;;;6.95;0.90;;;8.10;99.90;;;;;;5084258;27;20031;-78
2021/10/16 05:18:34;;;;;;;4.88;0.90;;;8.10;99.90;;;;;;5077877;27;20692;-79
2021/10/16 05:21:01;;;;;;;4.95;1.20;;;8.10;99.90;;;;;;5083253;27;20054;-79
2021/10/16 05:23:28;;;;;;;6.25;0.70;;;8.10;99.90;;;;;;5063685;28;20467;-78
2021/10/16 05:25:56;;;;;;;11.38;3.92;;;8.10;99.90;;;;;;5096247;27;20097;-78
2021/10/16 05:28:24;;;;;;;7.30;2.13;;;8.10;99.90;;;;;;5096216;27;20027;-78
2021/10/16 05:30:53;;;;;;;3.95;0.93;;;8.10;99.90;;;;;;5111806;27;20040;-80
2021/10/16 05:33:20;;;;;;;7.22;1.30;;;8.10;99.90;;;;;;5109118;27;20046;-81
2021/10/16 05:35:51;;;;;;;5.25;1.33;;;8.10;99.90;;;;;;5050160;28;20043;-78
2021/10/16 05:38:22;;;;;;;9.00;1.23;;;8.10;99.90;;;;;;5111185;27;20089;-78
2021/10/16 05:40:48;;;;;;;6.55;1.20;;;8.10;99.90;;;;;;5092611;28;20040;-78
2021/10/16 05:43:16;;;;;;;5.75;0.75;;;8.10;99.90;;;;;;5097607;27;20862;-78
2021/10/16 05:45:43;;;;;;;4.00;0.70;;;8.10;99.90;;;;;;5115389;27;20794;-77
2021/10/16 05:48:10;;;;;;;4.47;0.63;;;8.20;99.90;;;;;;5109673;27;20043;-77
2021/10/16 05:50:38;;;;;;;4.55;0.95;;;8.20;99.90;;;;;;5093742;27;20403;-77
2021/10/16 05:53:06;;;;;;;6.75;0.77;;;8.20;99.90;;;;;;5079645;27;20589;-77
2021/10/16 05:55:33;;;;;;;4.03;0.68;;;8.20;99.90;;;;;;5073779;27;20693;-80
2021/10/16 05:58:00;;;;;;;4.00;0.77;;;8.30;99.90;;;;;;5078964;27;20035;-80
2021/10/16 06:00:26;;;;;;;5.35;0.60;;;8.30;99.90;;;;;;5096054;27;20048;-80
2021/10/16 06:02:57;;;;;;;7.15;1.02;;;8.30;99.90;;;;;;5111337;27;20035;-80
2021/10/16 06:05:38;;;;;;;3.65;0.90;;;8.30;99.90;;;;;;5096706;27;20484;-77
2021/10/16 06:08:06;;;;;;;5.13;0.85;;;8.30;99.90;;;;;;5115809;27;20039;-77
2021/10/16 06:10:33;;;;;;;4.32;0.80;;;8.40;99.90;;;;;;5097766;27;20430;-77
2021/10/16 06:13:00;;;;;;;3.35;0.70;;;8.40;99.90;;;;;;5111841;27;20479;-77
2021/10/16 06:15:26;;;;;;;4.30;0.65;;;8.40;99.90;;;;;;5096513;27;20040;-77
2021/10/16 06:17:53;;;;;;;5.30;0.82;;;8.40;99.90;;;;;;5097890;27;20054;-77
2021/10/16 06:20:20;;;;;;;5.78;0.80;;;8.40;99.90;;;;;;5098381;27;20035;-77
2021/10/16 06:22:49;;;;;;;3.08;0.70;;;8.40;99.90;;;;;;5094089;27;20039;-77
2021/10/16 06:25:16;;;;;;;3.92;0.60;;;8.40;99.90;;;;;;5115144;27;20518;-77
2021/10/16 06:27:43;;;;;;;7.93;1.13;;;8.40;99.90;;;;;;5079433;27;20035;-77
2021/10/16 06:30:10;;;;;;;8.18;1.30;;;8.40;99.90;;;;;;5081872;27;20125;-77
2021/10/16 06:32:39;;;;;;;8.45;1.15;;;8.50;99.90;;;;;;5095464;27;20549;-77
2021/10/16 06:35:07;;;;;;;7.38;1.10;;;8.50;99.90;;;;;;5103306;27;20364;-77
2021/10/16 06:37:34;;;;;;;7.38;1.23;;;8.50;99.90;;;;;;5097997;27;20039;-77
2021/10/16 06:40:03;;;;;;;8.23;1.17;;;8.50;99.90;;;;;;5097731;27;20040;-80
2021/10/16 06:42:35;;;;;;;6.32;1.15;;;8.60;99.90;;;;;;5116727;27;20032;-77
2021/10/16 06:45:28;;;;;;;8.15;1.10;;;8.60;99.90;;;;;;5065617;27;20422;-77
2021/10/16 06:48:26;;;;;;;3.72;0.90;;;8.60;99.90;;;;;;5115604;27;20031;-77
2021/10/16 06:51:05;;;;;;;8.73;1.15;;;8.60;99.90;;;;;;5094434;27;20046;-77
2021/10/16 06:53:32;;;;;;;6.70;1.17;;;8.70;99.90;;;;;;5109643;27;20046;-77
2021/10/16 06:55:58;;;;;;;5.93;1.02;;;8.70;99.90;;;;;;5098598;27;20050;-77
2021/10/16 06:58:24;;;;;;;5.93;1.10;;;8.70;99.90;;;;;;5092355;28;20778;-77
2021/10/16 07:00:52;;;;;;;7.47;1.38;;;8.70;99.90;;;;;;5100436;27;20034;-77
2021/10/16 07:03:51;;;;;;;8.23;1.30;;;8.80;99.90;;;;;;5075244;27;20050;-77
2021/10/16 07:06:18;;;;;;;4.72;1.58;;;8.80;99.90;;;;;;5114644;27;20039;-77
2021/10/16 07:08:45;;;;;;;8.60;1.80;;;8.90;99.90;;;;;;5091403;27;20031;-77
2021/10/16 07:11:11;;;;;;;5.03;1.38;;;8.90;99.90;;;;;;5090108;27;20045;-77
2021/10/16 07:13:38;;;;;;;7.25;1.85;;;8.90;99.90;;;;;;5121886;27;20490;-77
2021/10/16 07:16:05;;;;;;;7.35;1.65;;;9.00;99.90;;;;;;5116464;27;20046;-77
2021/10/16 07:18:31;;;;;;;5.22;1.45;;;9.00;99.90;;;;;;5116739;27;20031;-77
2021/10/16 07:20:58;;;;;;;8.57;1.80;;;9.10;99.90;;;;;;5110456;27;20059;-77
2021/10/16 07:23:27;;;;;;;3.40;1.42;;;9.10;99.90;;;;;;5096358;27;20035;-77
2021/10/16 07:25:55;;;;;;;5.60;1.75;;;9.10;99.90;;;;;;5114681;27;20488;-77
2021/10/16 07:28:22;;;;;;;5.60;1.70;;;9.10;99.90;;;;;;5130772;27;20036;-77
2021/10/16 07:30:49;;;;;;;6.20;1.70;;;9.20;99.90;;;;;;5111724;27;20031;-78
2021/10/16 07:33:16;;;;;;;7.28;1.77;;;9.30;99.90;;;;;;5123354;27;21659;-77
2021/10/16 07:35:43;;;;;;;4.88;1.80;;;9.30;99.90;;;;;;5094566;27;20400;-77
2021/10/16 07:38:11;;;;;;;6.32;1.85;;;9.30;99.90;;;;;;5098106;27;20035;-77
2021/10/16 07:40:38;;;;;;;5.40;1.77;;;9.40;99.90;;;;;;5116693;27;20400;-77
2021/10/16 07:43:05;;;;;;;11.55;1.77;;;9.50;99.90;;;;;;5095806;27;20032;-77
2021/10/16 07:45:32;;;;;;;7.15;1.77;;;9.50;99.90;;;;;;5111178;27;20038;-77
2021/10/16 07:47:58;;;;;;;7.97;2.05;;;9.50;99.90;;;;;;5124454;27;20032;-77
2021/10/16 07:50:25;;;;;;;5.35;1.63;;;9.60;99.90;;;;;;5099621;27;20035;-77
2021/10/16 07:52:51;;;;;;;7.45;2.22;;;9.60;99.90;;;;;;5112351;27;20038;-78
2021/10/16 07:55:18;;;;;;;7.35;1.70;;;9.70;99.90;;;;;;5097611;27;20049;-78
2021/10/16 07:57:44;;;;;;;8.93;2.22;;;9.70;99.90;;;;;;5113031;27;20503;-78
2021/10/16 08:00:11;;;;;;;6.45;2.30;;;9.80;99.90;;;;;;5083362;27;20321;-78
2021/10/16 08:02:40;;;;;;;10.30;2.15;;;9.90;99.90;;;;;;5090720;27;20031;-78
2021/10/16 08:05:07;;;;;;;6.50;2.45;;;9.90;99.90;;;;;;5114200;27;20055;-77
2021/10/16 08:07:33;;;;;;;9.73;2.80;;;10.00;99.90;;;;;;5109801;27;20058;-77
2021/10/16 08:10:00;;;;;;;7.13;2.35;;;10.10;99.90;;;;;;5094720;27;20396;-78
2021/10/16 08:12:26;;;;;;;8.88;2.50;;;10.10;99.90;;;;;;5109819;27;20516;-77
2021/10/16 08:14:53;;;;;;;9.70;2.13;;;10.20;99.90;;;;;;5111550;27;20046;-78
2021/10/16 08:17:19;;;;;;;7.93;2.05;;;10.30;99.90;;;;;;5110642;27;20452;-78
2021/10/16 08:19:46;;;;;;;7.63;2.22;;;10.30;99.90;;;;;;5096228;27;20038;-77
2021/10/16 08:22:14;;;;;;;8.07;2.22;;;10.40;99.90;;;;;;5112586;27;20032;-77
2021/10/16 08:24:42;;;;;;;8.00;3.05;;;10.50;99.90;;;;;;5092631;27;20035;-77
2021/10/16 08:27:10;;;;;;;8.82;2.25;;;10.60;99.90;;;;;;5092643;27;20039;-77
2021/10/16 08:29:36;;;;;;;9.70;2.58;;;10.60;99.90;;;;;;5131007;27;20027;-78
2021/10/16 08:32:03;;;;;;;9.27;2.65;;;10.70;99.90;;;;;;5108209;27;20035;-80
2021/10/16 08:34:30;;;;;;;8.48;2.08;;;10.80;99.90;;;;;;5110025;27;20146;-78
2021/10/16 08:36:57;;;;;;;11.30;3.03;;;10.80;99.90;;;;;;5109607;27;20690;-79
2021/10/16 08:39:24;;;;;;;14.38;3.33;;;10.90;99.90;;;;;;5121032;27;20352;-79
2021/10/16 08:41:51;;;;;;;17.77;3.88;;;11.00;99.90;;;;;;5110440;27;20039;-78
2021/10/16 08:44:17;;;;;;;21.33;4.00;;;11.00;99.90;;;;;;5113864;27;20035;-78
2021/10/16 08:46:44;;;;;;;11.73;2.70;;;11.10;99.90;;;;;;5092956;27;20027;-78
2021/10/16 08:49:15;;;;;;;10.20;2.80;;;11.20;99.90;;;;;;5116528;27;20026;-79
2021/10/16 08:51:43;;;;;;;8.68;2.97;;;11.20;99.90;;;;;;5114538;27;20035;-79
2021/10/16 08:54:09;;;;;;;10.60;3.13;;;11.20;99.90;;;;;;5127672;27;20018;-78
2021/10/16 08:56:35;;;;;;;11.45;3.53;;;11.30;99.90;;;;;;5101035;27;20035;-78
2021/10/16 08:59:02;;;;;;;9.95;3.33;;;11.40;99.90;;;;;;5111853;27;20471;-78
2021/10/16 09:01:28;;;;;;;8.38;2.88;;;11.50;99.90;;;;;;5096562;27;20044;-79
2021/10/16 09:03:57;;;;;;;12.18;2.97;;;11.50;99.90;;;;;;5110439;27;20558;-78
2021/10/16 09:06:28;;;;;;;7.22;2.65;;;11.60;99.90;;;;;;5085131;27;20036;-78
2021/10/16 09:09:03;;;;;;;10.40;2.88;;;11.60;99.90;;;;;;5109285;27;20023;-79
2021/10/16 09:11:36;;;;;;;8.57;2.70;;;11.70;99.90;;;;;;5113349;27;21356;-78
2021/10/16 09:14:09;;;;;;;12.65;3.05;;;11.80;99.90;;;;;;5097666;27;20034;-79
2021/10/16 09:16:50;;;;;;;9.00;2.50;;;11.80;99.90;;;;;;5123508;27;20042;-78
2021/10/16 09:19:31;;;;;;;12.27;3.38;;;11.80;99.90;;;;;;5093169;27;20035;-78
2021/10/16 09:22:20;;;;;;;12.48;2.95;;;11.90;99.90;;;;;;5119545;27;20050;-79
2021/10/16 09:24:48;;;;;;;7.15;2.67;;;11.90;99.90;;;;;;5120851;27;20034;-78
2021/10/16 09:27:18;;;;;;;13.85;2.55;;;12.00;99.90;;;;;;5127698;27;20023;-78
2021/10/16 09:29:52;;;;;;;12.65;3.30;;;12.10;99.90;;;;;;5112867;27;20478;-78
2021/10/16 09:32:28;;;;;;;9.27;3.15;;;12.10;99.90;;;;;;5105936;28;20030;-81
2021/10/16 09:34:59;;;;;;;12.15;2.67;;;12.20;99.90;;;;;;5132753;27;20050;-77
2021/10/16 09:37:26;;;;;;;9.52;2.72;;;12.30;99.90;;;;;;5113185;27;20654;-79
2021/10/16 09:39:55;;;;;;;14.70;3.95;;;12.30;99.90;;;;;;5117536;27;20026;-79
2021/10/16 09:42:30;;;;;;;11.60;3.08;;;12.40;99.90;;;;;;5094939;28;20039;-79
2021/10/16 09:45:03;;;;;;;17.17;4.40;;;12.50;99.90;;;;;;5108859;27;20031;-77
2021/10/16 09:47:29;;;;;;;10.82;2.95;;;12.50;99.90;;;;;;5106492;27;20032;-78
2021/10/16 09:50:02;;;;;;;8.98;3.08;;;12.50;99.90;;;;;;5127244;27;20027;-79
2021/10/16 09:52:37;;;;;;;9.90;2.05;;;12.60;99.90;;;;;;5109203;28;20044;-79
2021/10/16 09:55:05;;;;;;;14.13;2.30;;;12.70;99.90;;;;;;5092592;28;20044;-79
2021/10/16 09:57:32;;;;;;;10.52;2.78;;;12.70;99.90;;;;;;5115584;27;20061;-79
2021/10/16 10:00:00;;;;;;;9.18;2.10;;;12.80;99.90;;;;;;5129125;27;20098;-78
2021/10/16 10:02:30;;;;;;;9.88;2.28;;;12.80;99.90;;;;;;5111281;27;20494;-79
2021/10/16 10:04:57;;;;;;;8.85;2.30;;;12.90;99.90;;;;;;5127368;27;20052;-79
2021/10/16 10:07:25;;;;;;;8.43;2.10;;;12.90;99.90;;;;;;5113944;28;20547;-79
2021/10/16 10:09:52;;;;;;;11.38;2.25;;;13.00;99.90;;;;;;5090278;27;20035;-80
2021/10/16 10:12:19;;;;;;;10.98;1.63;;;13.10;99.90;;;;;;5126257;27;20476;-79
2021/10/16 10:14:48;;;;;;;7.95;2.15;;;13.20;99.90;;;;;;5078828;27;20518;-79
2021/10/16 10:17:33;;;;;;;13.30;2.05;;;13.20;99.90;;;;;;5106850;27;20472;-79
2021/10/16 10:20:07;;;;;;;8.73;2.20;;;13.30;99.90;;;;;;5122683;27;20034;-79
2021/10/16 10:22:36;;;;;;;9.60;1.60;;;13.30;99.90;;;;;;5121541;27;20387;-79
2021/10/16 10:25:12;;;;;;;9.75;1.63;;;13.30;99.90;;;;;;5116595;27;20035;-78
2021/10/16 10:27:46;;;;;;;5.72;1.42;;;13.40;99.90;;;;;;5111423;27;20800;-79
2021/10/16 10:30:36;;;;;;;8.45;1.90;;;13.40;99.90;;;;;;5109492;27;20035;-79
2021/10/16 10:33:19;;;;;;;9.70;1.58;;;13.50;99.90;;;;;;5097269;27;20383;-79
2021/10/16 10:35:58;;;;;;;12.52;2.28;;;13.50;99.90;;;;;;5117911;27;20032;-79
2021/10/16 10:38:27;;;;;;;13.40;2.08;;;13.60;99.90;;;;;;5124171;27;20028;-79
2021/10/16 10:40:54;;;;;;;11.30;2.00;;;13.70;99.90;;;;;;5077866;27;20171;-79
2021/10/16 10:43:40;;;;;;;10.32;2.05;;;13.70;99.90;;;;;;5122847;27;20058;-79
2021/10/16 10:46:21;;;;;;;9.05;1.70;;;13.70;99.90;;;;;;5115074;27;20047;-79
2021/10/16 10:48:48;;;;;;;12.27;1.95;;;13.80;99.90;;;;;;5120503;27;20019;-79
2021/10/16 10:51:33;;;;;;;7.90;1.52;;;13.90;99.90;;;;;;5115240;27;20489;-79
2021/10/16 10:54:21;;;;;;;11.80;1.60;;;14.00;99.90;;;;;;5112350;27;20046;-79
2021/10/16 10:56:56;;;;;;;9.10;1.63;;;14.10;99.90;;;;;;5124176;27;21510;-80
2021/10/16 10:59:23;;;;;;;6.70;1.33;;;14.20;99.90;;;;;;5122544;27;20466;-79
2021/10/16 11:02:08;;;;;;;11.80;1.92;;;14.30;99.90;;;;;;5118363;27;20032;-79
2021/10/16 11:04:43;;;;;;;9.57;1.48;;;14.40;99.90;;;;;;5099043;27;20052;-79
2021/10/16 11:07:14;;;;;;;9.07;1.42;;;14.40;99.90;;;;;;5114530;27;20055;-80
2021/10/16 11:09:41;;;;;;;11.35;1.63;;;14.50;99.90;;;;;;5112303;27;20038;-79
2021/10/16 11:12:10;;;;;;;7.63;1.45;;;14.60;99.90;;;;;;5114942;27;20035;-79
2021/10/16 11:14:40;;;;;;;7.72;1.27;;;14.60;99.90;;;;;;5130342;27;20031;-79
2021/10/16 11:17:14;;;;;;;10.52;2.25;;;14.80;99.90;;;;;;5102752;27;20035;-79
2021/10/16 11:19:55;;;;;;;13.65;1.83;;;14.80;99.90;;;;;;5120671;27;20043;-79
2021/10/16 11:22:35;;;;;;;10.73;1.55;;;14.90;99.90;;;;;;5109691;27;20050;-79
2021/10/16 11:25:03;;;;;;;7.55;1.83;;;15.00;99.90;;;;;;5098847;27;20031;-79
2021/10/16 11:27:29;;;;;;;10.02;1.55;;;15.10;99.90;;;;;;5127919;27;20381;-79
2021/10/16 11:29:56;;;;;;;9.60;1.30;;;15.20;99.90;;;;;;5080408;27;20036;-80
2021/10/16 11:32:24;;;;;;;7.32;2.17;;;15.30;99.90;;;;;;5114848;27;20388;-80
2021/10/16 11:35:08;;;;;;;11.18;1.85;;;15.40;99.90;;;;;;5126649;27;20039;-79
2021/10/16 11:37:41;;;;;;;9.18;1.77;;;15.50;99.90;;;;;;5112978;27;20395;-80
2021/10/16 11:40:16;;;;;;;9.40;1.23;;;15.60;99.90;;;;;;5123395;27;20023;-80
2021/10/16 11:42:46;;;;;;;9.73;1.75;;;15.70;99.90;;;;;;5111601;27;20034;-79
2021/10/16 11:45:16;;;;;;;12.13;1.90;;;15.90;99.90;;;;;;5115347;27;20039;-80
2021/10/16 11:47:46;;;;;;;9.48;2.30;;;16.00;99.90;;;;;;5114990;27;21155;-83
2021/10/16 11:50:19;;;;;;;11.30;1.80;;;16.10;99.90;;;;;;5112007;27;20055;-80
2021/10/16 11:52:51;;;;;;;7.45;1.50;;;16.30;99.90;;;;;;5083911;27;20039;-79
2021/10/16 11:55:20;;;;;;;9.70;1.73;;;16.50;99.90;;;;;;5129615;27;20022;-80
2021/10/16 11:57:47;;;;;;;10.02;2.25;;;16.60;99.20;;;;;;5101023;27;20038;-79
2021/10/16 12:00:25;;;;;;;9.65;1.92;;;16.80;99.50;;;;;;5118796;27;20038;-80
2021/10/16 12:02:53;;;;;;;8.65;1.27;;;17.10;99.00;;;;;;5130913;27;20049;-79
2021/10/16 12:05:21;;;;;;;10.88;1.90;;;17.40;99.10;;;;;;5118268;27;20070;-81
2021/10/16 12:07:48;;;;;;;12.98;1.77;;;17.60;98.50;;;;;;5123511;27;20050;-80
2021/10/16 12:10:22;;;;;;;9.93;1.50;;;17.70;97.90;;;;;;5110336;27;20051;-80
2021/10/16 12:13:03;;;;;;;7.57;1.60;;;17.70;97.10;;;;;;5113956;27;20027;-80
2021/10/16 12:15:46;;;;;;;9.65;1.50;;;17.70;96.80;;;;;;5106993;27;20040;-80
2021/10/16 12:18:16;;;;;;;6.95;1.23;;;17.70;96.60;;;;;;5101454;27;20039;-80
2021/10/16 12:20:48;;;;;;;10.82;1.58;;;17.70;96.60;;;;;;5111854;27;20039;-80
2021/10/16 12:23:15;;;;;;;4.78;1.42;;;17.70;96.50;;;;;;5126211;27;20502;-80
2021/10/16 12:25:54;;;;;;;9.07;1.30;;;17.60;96.10;;;;;;5116289;27;20522;-80
2021/10/16 12:28:22;;;;;;;9.73;1.65;;;17.50;96.00;;;;;;5120957;27;20059;-80
2021/10/16 12:31:04;;;;;;;9.55;1.10;;;17.50;96.00;;;;;;5125167;27;20467;-80
2021/10/16 12:33:31;;;;;;;8.95;1.30;;;17.40;95.60;;;;;;5113813;27;20027;-80
2021/10/16 12:36:02;;;;;;;7.95;1.65;;;17.30;95.70;;;;;;5115752;27;20043;-80
2021/10/16 12:38:48;;;;;;;9.05;1.42;;;17.20;95.40;;;;;;5093594;27;20044;-80
2021/10/16 12:41:33;;;;;;;10.32;1.65;;;17.10;95.50;;;;;;5113755;27;20035;-81
2021/10/16 12:44:19;;;;;;;8.43;1.48;;;17.00;95.40;;;;;;5113688;27;20031;-80
2021/10/16 12:46:49;;;;;;;10.23;1.13;;;16.90;95.50;;;;;;5080149;27;20028;-81
2021/10/16 12:49:30;;;;;;;8.98;1.67;;;16.80;95.60;;;;;;5120390;27;20479;-81
2021/10/16 12:52:00;;;;;;;8.00;1.10;;;16.70;95.70;;;;;;5095063;27;20031;-80
2021/10/16 12:54:36;;;;;;;10.10;1.20;;;16.70;95.90;;;;;;5121764;27;20385;-80
2021/10/16 12:57:14;;;;;;;7.82;1.23;;;16.60;95.80;;;;;;5095284;27;20040;-80
2021/10/16 12:59:41;;;;;;;6.30;1.08;;;16.50;95.80;;;;;;5135111;27;20031;-80
2021/10/16 13:02:08;;;;;;;6.22;1.50;;;16.40;95.60;;;;;;5110392;27;20047;-80
2021/10/16 13:04:45;;;;;;;9.20;1.85;;;16.40;95.70;;;;;;5091748;27;20052;-79